Time;durP1;ratioP1;P1;durP2;ratioP2;P2;SDS_P1;SDS_P2;PMS_P1;PMS_P2;Temp;Humidity;BMP_temperature;BMP_pressure;BME280_temperature;BME280_humidity;BME280_pressure;Samples;Min_cycle;Max_cycle;Signal;HPM_P1;HPM_P2
2021/03/26 00:02:14;;;;;;;47.90;24.00;;;;;;;1.57;47.84;100792.61;1763972;79;21777;-59
2021/03/26 00:04:42;;;;;;;36.65;23.98;;;;;;;1.53;46.81;100787.98;1756578;81;21177;-59
2021/03/26 00:07:12;;;;;;;39.98;23.92;;;;;;;1.51;46.46;100791.52;1697434;82;21265;-59
2021/03/26 00:09:39;;;;;;;40.35;24.10;;;;;;;1.49;46.23;100788.52;1702127;83;21166;-59
2021/03/26 00:12:12;;;;;;;38.55;24.25;;;;;;;1.48;46.35;100782.95;1699067;82;22733;-59
2021/03/26 00:14:41;;;;;;;41.77;26.50;;;;;;;1.52;46.20;100787.58;1708420;82;21641;-59
2021/03/26 00:17:10;;;;;;;44.20;24.40;;;;;;;1.50;45.95;100784.20;1705377;81;21157;-60
2021/03/26 00:19:38;;;;;;;46.40;26.40;;;;;;;1.53;45.84;100781.93;1705846;82;22598;-59
2021/03/26 00:22:06;;;;;;;46.08;24.80;;;;;;;1.53;45.94;100785.39;1766750;81;21568;-59
2021/03/26 00:24:33;;;;;;;47.08;25.48;;;;;;;1.54;45.96;100787.06;1750392;81;21266;-59
2021/03/26 00:27:03;;;;;;;45.50;25.60;;;;;;;1.55;45.87;100786.64;1753582;81;21128;-59
2021/03/26 00:29:32;;;;;;;45.28;24.95;;;;;;;1.60;45.90;100784.72;1758831;81;21188;-59
2021/03/26 00:32:00;;;;;;;47.93;24.02;;;;;;;1.57;45.89;100782.23;1758862;81;21466;-59
2021/03/26 00:34:28;;;;;;;39.78;25.23;;;;;;;1.56;45.99;100780.06;1749357;81;21212;-59
2021/03/26 00:36:57;;;;;;;50.95;27.00;;;;;;;1.53;46.33;100788.41;1761211;81;21196;-59
2021/03/26 00:39:25;;;;;;;44.27;25.90;;;;;;;1.54;46.51;100784.47;1727248;82;21209;-59
2021/03/26 00:41:53;;;;;;;43.60;25.97;;;;;;;1.52;46.06;100783.69;1712696;81;21146;-60
2021/03/26 00:44:22;;;;;;;48.60;27.50;;;;;;;1.55;45.81;100782.28;1672500;83;21252;-59
2021/03/26 00:46:50;;;;;;;42.95;25.48;;;;;;;1.57;45.52;100783.07;1713844;83;21220;-59
2021/03/26 00:49:18;;;;;;;43.02;24.87;;;;;;;1.58;45.44;100784.77;1675797;82;21171;-59
2021/03/26 00:51:46;;;;;;;46.60;25.23;;;;;;;1.57;45.05;100788.72;1719076;81;21109;-59
2021/03/26 00:54:17;;;;;;;41.92;26.40;;;;;;;1.58;44.88;100780.88;1716743;82;21197;-59
2021/03/26 00:56:46;;;;;;;52.45;28.32;;;;;;;1.56;45.00;100785.25;1719231;82;21217;-60
2021/03/26 00:59:14;;;;;;;43.75;23.52;;;;;;;1.59;45.12;100787.74;1709666;83;21639;-59
2021/03/26 01:01:42;;;;;;;41.13;23.67;;;;;;;1.57;45.33;100796.50;1716756;82;21167;-59
2021/03/26 01:04:11;;;;;;;42.83;26.15;;;;;;;1.55;45.29;100794.42;1717243;81;21197;-59
2021/03/26 01:06:40;;;;;;;43.28;25.43;;;;;;;1.53;44.95;100794.47;1714397;83;21251;-58
2021/03/26 01:09:08;;;;;;;46.33;25.60;;;;;;;1.59;44.43;100791.63;1685282;83;21432;-59
2021/03/26 01:11:39;;;;;;;40.17;25.30;;;;;;;1.63;44.14;100789.77;1723843;82;21260;-59
2021/03/26 01:14:16;;;;;;;43.50;25.65;;;;;;;1.68;44.04;100793.05;1712883;83;21169;-58
2021/03/26 01:16:44;;;;;;;41.58;24.30;;;;;;;1.67;44.00;100794.80;1721300;81;21731;-59
2021/03/26 01:19:13;;;;;;;46.55;26.40;;;;;;;1.72;44.06;100791.21;1695198;83;21213;-59
2021/03/26 01:21:41;;;;;;;43.55;24.27;;;;;;;1.64;44.48;100789.72;1708337;83;21227;-59
2021/03/26 01:24:13;;;;;;;49.67;26.00;;;;;;;1.60;44.35;100786.02;1716034;82;21596;-59
2021/03/26 01:26:42;;;;;;;38.63;22.55;;;;;;;1.55;44.38;100791.83;1721024;81;22315;-59
2021/03/26 01:39:53;;;;;;;37.70;24.98;;;;;;;1.55;44.12;100793.13;1905193;74;23238;-59
2021/03/26 01:42:29;;;;;;;35.70;22.07;;;;;;;1.47;44.17;100802.00;1865227;75;21148;-59
2021/03/26 01:44:58;;;;;;;46.95;27.17;;;;;;;1.50;44.20;100794.58;1865107;75;21192;-60
2021/03/26 01:47:36;;;;;;;41.85;24.45;;;;;;;1.52;44.10;100803.59;1881744;74;22769;-59
2021/03/26 01:50:08;;;;;;;44.88;26.10;;;;;;;1.51;44.25;100805.33;1849714;77;21138;-59
2021/03/26 01:52:36;;;;;;;33.83;21.85;;;;;;;1.51;44.68;100804.03;1843859;77;21175;-58
2021/03/26 01:55:08;;;;;;;53.85;25.12;;;;;;;1.50;44.99;100808.84;1851463;77;21144;-58
2021/03/26 01:57:36;;;;;;;40.95;24.43;;;;;;;1.46;44.96;100820.20;1796203;77;21622;-59
2021/03/26 02:00:10;;;;;;;39.35;24.02;;;;;;;1.41;45.23;100811.31;1840523;77;21116;-59
2021/03/26 02:02:44;;;;;;;37.93;23.92;;;;;;;1.39;46.01;100816.98;1836718;77;21163;-59
2021/03/26 02:05:28;;;;;;;36.68;22.17;;;;;;;1.31;46.11;100821.58;1796179;79;22682;-59
2021/03/26 02:08:01;;;;;;;50.25;22.90;;;;;;;1.23;45.85;100818.44;1731415;80;21227;-60
2021/03/26 02:10:31;;;;;;;36.83;20.35;;;;;;;1.20;45.34;100822.42;1681419;83;21237;-59
2021/03/26 02:13:05;;;;;;;39.48;21.60;;;;;;;1.20;45.18;100818.07;1745574;81;21219;-59
2021/03/26 02:15:43;;;;;;;45.45;21.73;;;;;;;1.19;44.92;100822.02;1719391;81;21271;-59
2021/03/26 02:18:21;;;;;;;32.80;20.00;;;;;;;1.21;44.87;100821.08;1675868;82;21247;-59
2021/03/26 02:20:56;;;;;;;36.00;20.57;;;;;;;1.23;44.70;100819.73;1715389;83;21170;-59
2021/03/26 02:23:25;;;;;;;32.40;20.48;;;;;;;1.29;44.86;100819.50;1722730;82;22564;-58
2021/03/26 02:26:18;;;;;;;35.55;20.30;;;;;;;1.29;44.75;100820.80;1709527;83;21583;-59
2021/03/26 02:28:46;;;;;;;37.55;21.17;;;;;;;1.28;44.78;100817.36;1716888;82;21121;-59
2021/03/26 02:31:21;;;;;;;39.15;20.72;;;;;;;1.21;45.18;100818.91;1696008;83;21634;-59
2021/03/26 02:33:50;;;;;;;32.83;20.20;;;;;;;1.17;45.35;100822.06;1695834;81;21228;-60
2021/03/26 02:36:38;;;;;;;39.85;20.92;;;;;;;1.12;45.51;100814.89;1706028;82;21240;-59
2021/03/26 02:39:14;;;;;;;39.13;21.68;;;;;;;1.11;46.17;100814.05;1738039;81;21124;-60
2021/03/26 02:41:48;;;;;;;40.88;20.43;;;;;;;1.12;47.08;100814.89;1707347;82;21135;-60
2021/03/26 02:44:43;;;;;;;38.67;21.35;;;;;;;1.12;47.89;100813.59;1709472;81;21580;-61
2021/03/26 02:47:28;;;;;;;37.85;22.15;;;;;;;1.11;48.37;100811.92;1689608;83;21203;-60
2021/03/26 02:50:34;;;;;;;39.25;21.93;;;;;;;1.15;48.83;100817.84;1727930;81;22533;-59
2021/03/26 02:53:12;;;;;;;36.42;21.02;;;;;;;1.17;49.16;100820.77;1671096;84;21219;-59
2021/03/26 02:55:56;;;;;;;40.33;21.52;;;;;;;1.18;49.58;100824.19;1732121;81;21199;-59
2021/03/26 02:58:30;;;;;;;39.78;21.55;;;;;;;1.19;49.99;100822.84;1736954;81;21148;-59
2021/03/26 03:01:31;;;;;;;41.05;21.55;;;;;;;1.18;50.34;100826.36;1731114;81;21255;-60
2021/03/26 03:04:04;;;;;;;35.63;19.75;;;;;;;1.16;50.52;100829.89;1723161;81;21224;-60
2021/03/26 03:06:41;;;;;;;37.28;21.75;;;;;;;1.14;50.64;100824.75;1706158;83;21157;-60
2021/03/26 03:09:34;;;;;;;33.50;20.57;;;;;;;1.09;50.48;100827.95;1835301;76;22889;-60
2021/03/26 03:12:14;;;;;;;36.15;21.60;;;;;;;1.09;50.48;100827.95;1781367;79;21214;-60
2021/03/26 03:14:57;;;;;;;40.45;20.27;;;;;;;1.07;50.50;100825.86;1765996;79;21148;-60
2021/03/26 03:17:32;;;;;;;42.62;19.35;;;;;;;1.08;50.39;100827.57;1802512;79;21188;-63
2021/03/26 03:20:16;;;;;;;35.50;20.65;;;;;;;1.08;48.81;100835.34;1770760;79;21199;-63
2021/03/26 03:23:17;;;;;;;31.62;20.52;;;;;;;1.14;47.37;100833.83;1797920;79;21155;-63
2021/03/26 03:26:33;;;;;;;37.75;20.35;;;;;;;1.24;46.89;100842.98;1798084;79;21168;-63
2021/03/26 03:29:30;;;;;;;33.73;19.10;;;;;;;1.29;46.63;100843.70;1805856;79;21239;-63
2021/03/26 03:33:01;;;;;;;33.50;20.82;;;;;;;1.33;46.48;100847.03;1805164;79;21191;-62
2021/03/26 03:35:39;;;;;;;33.98;18.62;;;;;;;1.34;46.26;100851.76;1802053;79;21172;-62
2021/03/26 03:38:55;;;;;;;36.83;21.52;;;;;;;1.29;47.20;100851.48;1799466;79;21537;-63
2021/03/26 03:41:45;;;;;;;30.30;18.65;;;;;;;1.21;47.66;100860.39;1717725;81;21159;-63
2021/03/26 03:44:48;;;;;;;37.35;20.43;;;;;;;1.11;48.35;100855.52;1798354;79;21217;-62
2021/03/26 03:47:21;;;;;;;30.23;17.90;;;;;;;1.01;49.01;100856.73;1749463;79;21231;-61
2021/03/26 03:50:34;;;;;;;48.42;20.45;;;;;;;0.98;48.73;100855.53;1826899;76;22716;-64
2021/03/26 03:53:20;;;;;;;35.45;20.92;;;;;;;0.92;48.25;100857.88;1777511;79;21180;-64
2021/03/26 03:56:19;;;;;;;32.83;20.12;;;;;;;0.86;48.52;100851.59;1800231;79;21614;-64
2021/03/26 03:58:55;;;;;;;30.35;19.37;;;;;;;0.82;48.70;100859.05;1794873;79;21188;-62
2021/03/26 04:01:34;;;;;;;33.80;20.52;;;;;;;0.79;49.34;100859.59;1745215;82;21121;-63
2021/03/26 04:04:17;;;;;;;32.38;19.65;;;;;;;0.78;49.77;100861.34;1745150;81;21572;-63
2021/03/26 04:06:55;;;;;;;31.97;17.52;;;;;;;0.79;50.02;100861.77;1735536;82;21168;-65
2021/03/26 04:09:28;;;;;;;36.63;18.10;;;;;;;0.76;49.55;100864.87;1721007;80;21627;-65
2021/03/26 04:12:03;;;;;;;34.50;17.60;;;;;;;0.80;49.10;100871.67;1774361;79;21607;-65
2021/03/26 04:15:29;;;;;;;30.17;17.57;;;;;;;0.92;48.21;100872.56;1828661;76;23293;-64
2021/03/26 04:18:36;;;;;;;28.45;16.17;;;;;;;1.01;47.31;100870.11;1718052;79;22578;-65
2021/03/26 04:21:14;;;;;;;36.03;17.77;;;;;;;1.15;46.54;100873.11;1769706;80;21194;-66
2021/03/26 04:24:02;;;;;;;35.13;17.70;;;;;;;1.30;46.31;100878.24;1741761;80;21199;-65
2021/03/26 04:26:55;;;;;;;29.92;18.32;;;;;;;1.38;46.31;100874.95;1770061;79;21160;-65
2021/03/26 04:40:15;;;;;;;33.85;19.20;;;;;;;1.35;48.03;100881.53;1794046;78;22853;-58
2021/03/26 04:53:48;;;;;;;26.80;15.95;;;;;;;1.40;48.24;100900.37;1810510;77;22800;-62
2021/03/26 05:06:59;;;;;;;;;;;;;;;1.55;47.19;100900.77;1796359;77;21996;-57
2021/03/26 05:09:31;;;;;;;31.82;19.60;;;;;;;1.55;46.63;100899.47;1719106;81;20297;-58
2021/03/26 05:12:19;;;;;;;37.13;17.77;;;;;;;1.62;46.19;100899.64;1748685;80;21242;-58
2021/03/26 05:15:10;;;;;;;29.75;18.20;;;;;;;1.80;45.84;100904.19;1797993;77;22812;-59
2021/03/26 05:17:53;;;;;;;30.72;16.93;;;;;;;1.91;45.57;100909.45;1785240;79;21239;-59
2021/03/26 05:20:37;;;;;;;31.93;18.52;;;;;;;2.00;45.51;100917.76;1764208;79;21433;-58
2021/03/26 05:23:32;;;;;;;26.75;16.55;;;;;;;2.12;45.58;100908.68;1771353;78;21198;-59
2021/03/26 05:26:19;;;;;;;35.05;18.95;;;;;;;2.17;45.59;100911.95;1686669;83;21210;-59
2021/03/26 05:39:36;;;;;;;33.02;22.02;;;;;;;2.71;45.39;100911.69;1851946;74;22824;-56
2021/03/26 05:42:37;;;;;;;35.43;22.62;;;;;;;2.77;44.76;100921.39;1830334;76;21211;-58
2021/03/26 05:45:28;;;;;;;37.33;19.25;;;;;;;2.92;44.46;100930.31;1822016;76;21233;-60
2021/03/26 05:48:15;;;;;;;33.40;17.42;;;;;;;3.05;44.68;100926.78;1811551;77;21673;-58
2021/03/26 05:51:20;;;;;;;31.93;16.85;;;;;;;3.19;44.09;100920.19;1821260;76;22889;-58
2021/03/26 05:54:23;;;;;;;38.63;22.17;;;;;;;3.26;43.95;100925.09;1780128;79;21201;-58
2021/03/26 05:57:24;;;;;;;28.45;18.02;;;;;;;3.40;43.86;100928.41;1820284;76;22800;-58
2021/03/26 06:00:23;;;;;;;70.52;32.58;;;;;;;3.45;43.79;100925.63;1802898;77;21207;-58
2021/03/26 06:03:41;;;;;;;83.85;46.20;;;;;;;3.52;44.59;100923.98;1794155;79;21390;-58
2021/03/26 06:06:49;;;;;;;26.80;15.38;;;;;;;3.67;46.54;100924.27;1794894;78;21084;-58
2021/03/26 06:10:36;;;;;;;37.78;21.80;;;;;;;3.95;45.16;100931.73;1794827;78;22815;-57
2021/03/26 06:14:01;;;;;;;34.85;16.77;;;;;;;4.02;44.83;100929.71;1778447;78;21084;-56
2021/03/26 06:17:09;;;;;;;24.92;13.72;;;;;;;4.28;44.28;100937.65;1798181;78;22728;-58
2021/03/26 06:20:36;;;;;;;23.30;12.58;;;;;;;4.34;43.73;100931.31;1736058;80;21547;-58
2021/03/26 06:23:49;;;;;;;24.82;12.23;;;;;;;4.42;43.48;100933.11;1689655;81;22603;-57
2021/03/26 06:26:37;;;;;;;23.50;11.73;;;;;;;4.51;43.43;100931.41;1705856;82;21226;-56
2021/03/26 06:29:20;;;;;;;23.22;10.40;;;;;;;4.62;42.47;100931.77;1706288;82;21671;-56
2021/03/26 06:32:23;;;;;;;19.05;11.38;;;;;;;4.67;42.44;100933.30;1704811;81;21223;-57
2021/03/26 06:35:07;;;;;;;15.95;9.25;;;;;;;4.71;42.56;100931.78;1734660;81;21215;-57
2021/03/26 06:38:12;;;;;;;19.40;9.65;;;;;;;4.77;42.27;100931.95;1717220;82;21320;-57
2021/03/26 06:41:13;;;;;;;17.32;8.83;;;;;;;4.81;42.30;100934.34;1720599;81;21648;-57
2021/03/26 06:44:03;;;;;;;18.07;9.25;;;;;;;4.86;42.57;100934.13;1717828;82;21251;-59
2021/03/26 06:47:13;;;;;;;19.65;9.75;;;;;;;4.91;42.41;100936.50;1713372;81;21227;-60
2021/03/26 06:50:05;;;;;;;19.42;9.13;;;;;;;4.97;42.64;100937.52;1713880;82;21654;-60
2021/03/26 06:53:06;;;;;;;19.80;8.90;;;;;;;5.07;42.80;100939.23;1706045;81;21277;-63
2021/03/26 06:55:50;;;;;;;18.20;9.58;;;;;;;5.16;42.64;100934.42;1738225;80;21244;-60
2021/03/26 06:59:02;;;;;;;16.37;8.53;;;;;;;5.26;42.70;100930.91;1738728;81;21219;-64
2021/03/26 07:02:09;;;;;;;16.55;8.95;;;;;;;5.39;43.08;100930.66;1714183;81;21259;-59
2021/03/26 07:04:57;;;;;;;20.43;10.70;;;;;;;5.39;43.08;100930.66;1685245;81;21603;-62
2021/03/26 07:08:10;;;;;;;19.17;10.82;;;;;;;5.47;43.33;100930.77;1642087;84;21908;-61
2021/03/26 07:11:03;;;;;;;20.85;11.48;;;;;;;5.47;43.33;100930.77;1629683;85;21224;-60
2021/03/26 07:14:01;;;;;;;17.42;9.10;;;;;;;5.55;42.83;100931.23;1643516;84;21244;-60
2021/03/26 07:16:58;;;;;;;17.27;10.05;;;;;;;5.62;43.03;100929.16;1641567;85;21231;-60
2021/03/26 07:19:51;;;;;;;15.10;7.97;;;;;;;5.67;42.86;100931.91;1617164;86;21284;-59
2021/03/26 07:22:53;;;;;;;12.80;8.50;;;;;;;5.72;42.82;100928.59;1651149;85;21231;-60
2021/03/26 07:26:06;;;;;;;15.70;7.62;;;;;;;5.78;42.61;100935.27;1692247;82;21278;-71
2021/03/26 07:28:56;;;;;;;20.72;9.03;;;;;;;5.85;42.45;100936.66;1672655;83;21725;-60
2021/03/26 07:31:40;;;;;;;18.52;9.75;;;;;;;5.92;42.41;100939.33;1659909;82;21230;-63
2021/03/26 07:34:38;;;;;;;17.10;8.95;;;;;;;6.01;42.05;100938.50;1691222;82;21242;-63
2021/03/26 07:37:21;;;;;;;17.62;7.83;;;;;;;6.08;42.26;100944.62;1685399;82;21390;-62
2021/03/26 07:40:45;;;;;;;13.45;8.45;;;;;;;6.23;41.86;100944.28;1826572;75;22668;-65
2021/03/26 07:43:48;;;;;;;13.93;8.83;;;;;;;6.27;41.92;100946.27;1777652;77;21625;-65
2021/03/26 07:46:51;;;;;;;16.15;8.03;;;;;;;6.34;40.88;100945.03;1804110;77;21189;-65
2021/03/26 07:49:45;;;;;;;13.00;6.90;;;;;;;6.47;41.23;100953.05;1768239;78;21139;-64
2021/03/26 07:52:54;;;;;;;14.40;7.37;;;;;;;6.60;41.34;100948.01;1741413;81;21187;-64
2021/03/26 07:55:32;;;;;;;16.35;9.03;;;;;;;6.72;40.46;100948.63;1744215;79;21755;-66
2021/03/26 07:58:23;;;;;;;17.20;9.08;;;;;;;6.91;40.13;100955.47;1743260;81;21611;-64
2021/03/26 08:01:26;;;;;;;16.90;8.40;;;;;;;6.91;40.13;100955.47;1795465;77;23582;-64
2021/03/26 08:04:01;;;;;;;18.95;9.43;;;;;;;7.00;40.06;100951.05;1794505;79;21187;-65
2021/03/26 08:07:24;;;;;;;15.32;9.68;;;;;;;7.07;39.53;100954.52;1796536;79;21100;-64
2021/03/26 08:10:03;;;;;;;16.25;9.40;;;;;;;7.23;38.88;100959.75;1805750;79;21168;-64
2021/03/26 08:13:02;;;;;;;13.95;7.70;;;;;;;7.29;39.31;100960.33;1870521;75;22405;-57
2021/03/26 08:16:03;;;;;;;15.70;7.83;;;;;;;7.34;38.36;100961.74;1844108;76;21171;-63
2021/03/26 08:19:01;;;;;;;12.10;7.00;;;;;;;7.44;38.79;100960.28;1736329;77;21147;-59
2021/03/26 08:21:48;;;;;;;15.43;7.42;;;;;;;7.55;38.41;100961.46;1843475;76;21045;-57
2021/03/26 08:24:50;;;;;;;12.83;6.37;;;;;;;7.64;38.50;100967.45;1848808;75;21887;-59
2021/03/26 08:27:44;;;;;;;11.12;6.03;;;;;;;7.76;38.25;100963.27;1818559;76;21221;-57
2021/03/26 08:30:58;;;;;;;14.45;6.85;;;;;;;7.87;37.75;100967.42;1840810;76;21071;-59
2021/03/26 08:33:56;;;;;;;14.87;6.65;;;;;;;7.95;37.28;100965.19;1846210;75;21383;-57
2021/03/26 08:36:46;;;;;;;12.30;6.17;;;;;;;8.08;37.31;100963.13;1847433;75;21175;-57
2021/03/26 08:39:36;;;;;;;10.35;5.35;;;;;;;8.21;37.04;100968.48;1822391;77;21482;-58
2021/03/26 08:42:34;;;;;;;10.38;5.28;;;;;;;8.28;37.17;100968.48;1847202;75;21183;-56
2021/03/26 08:45:25;;;;;;;10.93;5.75;;;;;;;8.37;36.67;100970.52;1806711;78;21235;-58
2021/03/26 08:48:13;;;;;;;9.85;4.47;;;;;;;8.46;35.29;100976.56;1806311;77;21205;-57
2021/03/26 08:51:15;;;;;;;10.00;4.97;;;;;;;8.55;35.35;100970.73;1762115;79;21204;-57
2021/03/26 08:54:36;;;;;;;13.15;5.12;;;;;;;8.66;35.24;100975.33;1759500;79;21179;-57
2021/03/26 08:57:46;;;;;;;11.57;4.95;;;;;;;8.74;34.72;100977.00;1763679;79;21180;-57
2021/03/26 09:00:34;;;;;;;9.70;4.83;;;;;;;8.80;34.40;100975.77;1777564;78;21174;-57
2021/03/26 09:03:49;;;;;;;12.37;5.40;;;;;;;8.89;34.86;100978.27;1744763;79;21228;-57
2021/03/26 09:06:37;;;;;;;10.53;5.37;;;;;;;8.97;34.36;100980.42;1784195;78;21180;-58
2021/03/26 09:09:43;;;;;;;10.10;4.72;;;;;;;9.04;35.02;100975.14;1788089;78;21237;-57
2021/03/26 09:12:39;;;;;;;10.18;5.67;;;;;;;9.15;34.61;100981.86;1785133;78;21182;-56
2021/03/26 09:15:41;;;;;;;13.22;5.37;;;;;;;9.23;34.25;100978.27;1778298;78;21140;-56
2021/03/26 09:18:24;;;;;;;14.33;6.12;;;;;;;9.28;34.42;100981.92;1781171;79;21207;-59
2021/03/26 09:21:30;;;;;;;9.48;5.35;;;;;;;9.30;34.71;100978.23;1781276;78;21191;-56
2021/03/26 09:24:28;;;;;;;9.47;5.97;;;;;;;9.37;35.03;100981.79;1790862;78;21182;-57
2021/03/26 09:27:29;;;;;;;10.28;5.37;;;;;;;9.40;35.16;100982.42;1771263;79;21151;-57
2021/03/26 09:30:24;;;;;;;10.90;5.65;;;;;;;9.46;35.83;100975.47;1799581;78;21120;-57
2021/03/26 09:32:57;;;;;;;10.90;5.50;;;;;;;9.56;36.58;100975.67;1737074;80;21716;-57
2021/03/26 09:35:33;;;;;;;9.80;4.75;;;;;;;9.69;36.98;100978.81;1735061;80;21792;-56
2021/03/26 09:49:01;;;;;;;9.55;4.53;;;;;;;9.99;37.04;100972.80;1855131;74;22771;-57
2021/03/26 09:51:51;;;;;;;10.68;4.67;;;;;;;9.98;35.85;100968.47;1828941;76;21147;-57
2021/03/26 09:54:41;;;;;;;9.98;4.62;;;;;;;10.04;35.87;100967.23;1825279;77;21190;-57
2021/03/26 09:57:21;;;;;;;7.62;3.77;;;;;;;10.13;35.63;100973.16;1803760;77;21043;-57
2021/03/26 10:13:30;;;;;;;8.33;3.62;;;;;;;12.13;32.53;100963.58;1815749;76;22654;-58
2021/03/26 10:16:04;;;;;;;9.05;4.22;;;;;;;12.22;31.16;100971.63;1750505;80;21087;-58
2021/03/26 10:18:43;;;;;;;10.55;3.83;;;;;;;12.16;31.60;100956.75;1801125;79;22712;-59
2021/03/26 10:21:21;;;;;;;11.38;3.77;;;;;;;11.99;32.00;100969.44;1720076;81;21255;-58
2021/03/26 10:24:11;;;;;;;7.55;3.62;;;;;;;11.87;32.27;100971.67;1708510;83;21145;-58
2021/03/26 10:27:10;;;;;;;9.15;4.17;;;;;;;11.80;32.33;100966.48;1715864;82;21196;-58
2021/03/26 10:29:54;;;;;;;8.33;3.62;;;;;;;11.68;31.44;100962.97;1709695;81;21433;-57
2021/03/26 10:32:28;;;;;;;7.10;3.90;;;;;;;11.52;31.98;100968.09;1711396;81;21141;-56
2021/03/26 10:35:00;;;;;;;7.75;3.50;;;;;;;11.40;32.24;100963.73;1682340;83;21144;-56
2021/03/26 10:37:45;;;;;;;9.15;3.92;;;;;;;11.40;32.51;100961.56;1700369;82;21239;-56
2021/03/26 10:40:24;;;;;;;8.85;4.22;;;;;;;11.39;32.18;100956.77;1690799;82;21196;-58
2021/03/26 10:43:21;;;;;;;7.35;3.98;;;;;;;11.38;31.78;100960.84;1691290;81;21262;-57
2021/03/26 10:46:01;;;;;;;8.30;4.42;;;;;;;11.33;31.62;100960.72;1711445;81;21215;-55
2021/03/26 10:49:15;;;;;;;10.18;4.95;;;;;;;11.29;31.44;100960.56;1734398;81;21191;-57
2021/03/26 10:51:56;;;;;;;6.92;3.22;;;;;;;11.24;31.46;100958.75;1710368;81;21247;-55
2021/03/26 10:56:40;;;;;;;8.78;3.62;;;;;;;11.34;30.68;100962.37;1800179;78;22151;-58
2021/03/26 10:59:29;;;;;;;9.05;4.50;;;;;;;11.53;30.75;100959.69;1776646;78;21100;-58
2021/03/26 11:02:04;;;;;;;7.28;3.35;;;;;;;11.54;30.10;100962.70;1728599;78;21216;-56
2021/03/26 11:04:37;;;;;;;8.30;3.80;;;;;;;11.47;30.39;100949.14;1736357;78;21215;-57
2021/03/26 11:07:11;;;;;;;7.97;3.72;;;;;;;11.49;30.74;100963.52;1775176;78;21231;-56
2021/03/26 11:09:42;;;;;;;7.58;3.72;;;;;;;11.50;29.81;100961.27;1779957;80;21194;-57
2021/03/26 11:12:34;;;;;;;7.20;4.00;;;;;;;11.50;29.79;100954.67;1772233;79;21558;-56
2021/03/26 11:15:15;;;;;;;6.15;2.80;;;;;;;11.47;28.37;100961.48;1764178;80;21266;-55
2021/03/26 11:18:01;;;;;;;6.55;3.22;;;;;;;11.44;28.14;100957.76;1752963;80;21193;-57
2021/03/26 11:20:53;;;;;;;8.63;3.77;;;;;;;11.46;26.98;100957.16;1771234;79;20984;-57
2021/03/26 11:23:30;;;;;;;5.37;2.83;;;;;;;11.43;28.16;100960.88;1745013;80;21191;-56
2021/03/26 11:26:21;;;;;;;9.00;4.85;;;;;;;11.48;27.99;100960.52;1771333;78;21188;-56
2021/03/26 11:28:59;;;;;;;8.73;4.12;;;;;;;11.50;27.84;100959.95;1767965;79;21388;-57
2021/03/26 11:31:42;;;;;;;14.87;3.83;;;;;;;11.49;27.28;100955.13;1774839;79;21204;-57
2021/03/26 11:34:37;;;;;;;8.30;4.08;;;;;;;11.53;27.21;100946.52;1777290;78;21242;-56
2021/03/26 11:37:22;;;;;;;6.30;2.62;;;;;;;11.57;28.69;100954.56;1772208;78;21183;-57
2021/03/26 11:40:07;;;;;;;7.20;2.70;;;;;;;11.59;26.99;100947.38;1773313;78;21221;-56
2021/03/26 11:43:25;;;;;;;7.10;4.12;;;;;;;11.63;27.14;100951.48;1771175;79;21274;-57
2021/03/26 11:46:04;;;;;;;7.78;3.42;;;;;;;11.66;27.38;100946.44;1756044;79;22269;-56
2021/03/26 11:48:56;;;;;;;8.40;3.83;;;;;;;11.67;27.70;100946.81;1743265;80;21189;-58
2021/03/26 11:51:29;;;;;;;5.95;2.65;;;;;;;11.71;27.96;100939.85;1773051;78;21223;-57
2021/03/26 11:54:22;;;;;;;6.72;3.22;;;;;;;11.80;27.93;100941.42;1717231;81;21184;-57
2021/03/26 11:57:21;;;;;;;7.10;3.77;;;;;;;11.85;28.19;100933.55;1700530;83;21273;-56
2021/03/26 12:00:07;;;;;;;9.98;3.58;;;;;;;11.93;28.86;100947.96;1764047;79;21233;-56
2021/03/26 12:02:44;;;;;;;5.92;3.22;;;;;;;11.97;29.28;100936.20;1766432;79;21192;-58
2021/03/26 12:06:39;;;;;;;7.00;2.85;;;;;;;12.06;29.41;100921.84;1796669;78;22785;-68
2021/03/26 12:10:03;;;;;;;8.13;3.37;;;;;;;12.17;29.12;100930.70;1750522;78;22261;-68
2021/03/26 12:12:37;;;;;;;7.55;3.85;;;;;;;12.21;29.41;100933.48;1732373;82;21176;-70
2021/03/26 12:15:10;;;;;;;7.50;3.87;;;;;;;12.28;29.52;100925.92;1746811;81;22145;-70
2021/03/26 12:18:04;;;;;;;7.60;3.65;;;;;;;12.38;29.95;100922.92;1834421;76;22834;-58
2021/03/26 12:20:38;;;;;;;8.50;3.85;;;;;;;12.40;29.81;100928.42;1802432;78;21108;-61
2021/03/26 12:23:33;;;;;;;10.18;4.17;;;;;;;12.42;29.77;100926.98;1807313;78;21353;-60
2021/03/26 12:26:34;;;;;;;7.45;4.10;;;;;;;12.48;30.02;100921.72;1781892;78;21159;-60
2021/03/26 12:29:11;;;;;;;7.47;3.37;;;;;;;12.53;30.10;100917.73;1706707;82;21199;-62
2021/03/26 12:42:21;;;;;;;10.53;5.72;;;;;;;12.77;30.00;100914.09;1891180;74;22619;-61
2021/03/26 12:45:03;;;;;;;8.95;4.30;;;;;;;12.82;30.14;100913.23;1846977;75;21256;-59
2021/03/26 12:47:47;;;;;;;7.30;4.22;;;;;;;12.99;29.81;100905.25;1880914;74;22719;-65
2021/03/26 12:50:26;;;;;;;8.45;3.72;;;;;;;13.07;30.00;100908.59;1853001;75;21175;-62
2021/03/26 12:53:04;;;;;;;8.23;3.70;;;;;;;13.17;29.42;100911.66;1842234;76;21363;-60
2021/03/26 12:55:58;;;;;;;8.55;3.98;;;;;;;13.25;28.83;100910.21;1840522;75;21227;-62
2021/03/26 12:58:50;;;;;;;7.72;3.42;;;;;;;13.30;29.17;100911.98;1842644;75;21118;-59
2021/03/26 13:01:21;;;;;;;7.37;3.75;;;;;;;13.35;29.25;100909.34;1843818;75;21186;-58
2021/03/26 13:04:33;;;;;;;6.92;3.15;;;;;;;13.41;29.25;100911.94;1855447;75;21207;-58
2021/03/26 13:07:04;;;;;;;5.28;2.80;;;;;;;13.45;29.15;100898.84;1818994;75;22184;-59
2021/03/26 13:09:47;;;;;;;7.45;3.58;;;;;;;13.45;28.75;100896.66;1844893;77;20980;-59
2021/03/26 13:12:22;;;;;;;9.05;4.65;;;;;;;13.48;29.10;100903.02;1839407;75;21131;-60
2021/03/26 13:15:21;;;;;;;;;;;;;;;13.56;29.57;100903.20;1848715;77;20980;-60
2021/03/26 13:17:48;;;;;;;6.80;3.45;;;;;;;13.63;29.38;100899.06;1848086;75;20302;-59
2021/03/26 13:20:18;;;;;;;7.08;3.58;;;;;;;13.67;30.18;100901.00;1809895;77;21359;-60
2021/03/26 13:22:56;;;;;;;8.33;3.58;;;;;;;14.10;29.64;100896.83;1786603;78;21120;-59
2021/03/26 13:25:48;;;;;;;6.67;3.05;;;;;;;15.05;28.73;100898.14;1809460;78;21125;-61
2021/03/26 13:28:38;;;;;;;21.10;10.00;;;;;;;16.19;27.54;100903.16;1770685;78;21683;-60
2021/03/26 13:31:21;;;;;;;10.65;5.05;;;;;;;17.59;26.40;100888.92;1749247;80;21180;-62
2021/03/26 13:34:04;;;;;;;28.95;16.90;;;;;;;18.91;24.45;100883.66;1796590;78;21210;-62
2021/03/26 13:37:06;;;;;;;8.98;3.62;;;;;;;19.92;23.51;100882.06;1784019;78;21187;-60
2021/03/26 13:39:48;;;;;;;8.15;4.92;;;;;;;20.77;22.64;100866.63;1812438;77;21219;-61
2021/03/26 13:42:53;;;;;;;8.25;4.95;;;;;;;21.64;21.85;100864.06;1811049;77;21168;-61
2021/03/26 13:45:23;;;;;;;9.85;5.40;;;;;;;22.08;20.71;100865.37;1793689;77;21160;-60
2021/03/26 13:48:02;;;;;;;13.05;7.37;;;;;;;22.20;20.92;100870.25;1787202;78;21379;-61
2021/03/26 13:50:40;;;;;;;11.78;7.22;;;;;;;22.25;21.16;100866.50;1810734;78;21147;-63
2021/03/26 13:53:16;;;;;;;7.78;4.00;;;;;;;22.58;20.82;100856.19;1804413;78;21172;-61
2021/03/26 13:55:51;;;;;;;7.97;3.12;;;;;;;22.74;20.43;100860.45;1783407;78;21665;-57
2021/03/26 13:58:43;;;;;;;5.47;2.60;;;;;;;22.78;20.41;100857.73;1780592;78;21155;-59
2021/03/26 14:01:25;;;;;;;6.58;2.67;;;;;;;22.75;20.22;100863.99;1800821;78;22618;-59
2021/03/26 14:04:26;;;;;;;6.20;3.17;;;;;;;22.49;20.20;100855.15;1779826;78;21200;-59
2021/03/26 14:07:16;;;;;;;6.62;3.35;;;;;;;22.17;20.75;100855.37;1787331;78;21179;-60
2021/03/26 14:09:56;;;;;;;8.98;3.20;;;;;;;22.01;21.25;100858.28;1779412;78;21199;-61
2021/03/26 14:12:33;;;;;;;6.20;2.47;;;;;;;21.83;21.05;100857.31;1812639;78;21171;-59
2021/03/26 14:15:07;;;;;;;6.37;2.85;;;;;;;21.75;21.13;100860.08;1773827;79;21192;-55
2021/03/26 14:17:59;;;;;;;7.28;3.12;;;;;;;21.94;21.30;100855.52;1779819;78;21292;-57
2021/03/26 14:20:57;;;;;;;7.10;2.42;;;;;;;22.20;21.10;100859.02;1757626;78;21188;-56
2021/03/26 14:23:34;;;;;;;5.90;2.10;;;;;;;22.10;21.11;100860.34;1757865;79;21258;-56